ADDS METAR Data INFO
IDs: Format: Raw Decoded Include TAF

Data at: 0504 UTC 23 May 2017

KPSN 230455Z AUTO 00000KT 7SM SCT008 BKN016 OVC021 17/17 A2995 RMK AO2 T01710171
KPSN 230435Z AUTO 00000KT 5SM BR BKN007 BKN011 OVC021 17/17 A2995 RMK AO2 T01710170
KPSN 230415Z AUTO 00000KT 7SM OVC010 17/17 A2996 RMK AO2 T01710170
KPSN 230355Z AUTO 00000KT 5SM BR SCT005 BKN010 OVC021 17/17 A2996 RMK AO2 T01710170
KPSN 230335Z AUTO 03003KT 5SM BR BKN007 BKN012 OVC021 17/17 A2995 RMK AO2 T01710170
KPSN 230315Z AUTO 04003KT 4SM BR BKN007 BKN012 OVC021 17/17 A2995 RMK AO2 T01710170
KPSN 230255Z AUTO 01004KT 7SM OVC005 17/17 A2995 RMK AO2 T01730172
KPSN 230235Z AUTO 02003KT 7SM BKN007 OVC010 17/17 A2994 RMK AO2 T01730172
KPSN 230215Z AUTO 03004KT 4SM BR BKN007 OVC011 17/17 A2994 RMK AO2 T01750173
KPSN 230155Z AUTO 04003KT 5SM BR BKN005 OVC012 17/17 A2994 RMK AO2 T01750173
KPSN 230135Z AUTO 02004KT 4SM BR BKN007 OVC013 17/17 A2994 RMK AO2 T01770174
KPSN 230115Z AUTO 04004KT 3SM BR BKN007 OVC015 17/17 A2994 RMK AO2 T01790175
KPSN 230055Z AUTO 04004KT 7SM SCT010 OVC015 18/17 A2994 RMK AO2 T01810175
KPSN 230035Z AUTO 05004KT 10SM OVC012 18/17 A2993 RMK AO2 T01850174
KPSN 230015Z AUTO 03006KT 10SM OVC012 18/17 A2994 RMK AO2 T01860174
KPSN 222355Z AUTO 02006KT 10SM OVC012 18/17 A2994 RMK AO2 T01900175
KPSN 222335Z AUTO 03006KT 10SM OVC012 18/17 A2995 RMK AO2 T01910175
KPSN 222315Z AUTO 04007KT 10SM OVC012 19/17 A2994 RMK AO2 T01920176
KPSN 222255Z AUTO 05006KT 10SM OVC014 20/17 A2995 RMK AO2 T01970179
KPSN 222235Z AUTO 06007KT 10SM BKN010 OVC014 19/17 A2995 RMK AO2 T01970179
KPSN 222215Z AUTO 06005KT 10SM OVC010 19/17 A2995 RMK AO2 T01920177
KPSN 222155Z AUTO 06007KT 10SM OVC010 19/17 A2996 RMK AO2 T01930178
KPSN 222135Z AUTO 05007KT 10SM OVC010 19/17 A2997 RMK AO2 T01950177
KPSN 222115Z AUTO 06006KT 10SM OVC010 19/18 A2997 RMK AO2 T01960181
KPSN 222055Z AUTO 06006KT 10SM OVC008 19/17 A2998 RMK AO2 T01950180
KPSN 222035Z AUTO 03005KT 10SM OVC010 20/17 A2999 RMK AO2 T01970180
KPSN 222015Z AUTO 05009KT 10SM OVC010 19/18 A3000 RMK AO2 T01930180
KPSN 221955Z AUTO 02005KT 10SM BKN008 OVC012 18/18 A3001 RMK AO2 T01900182
KPSN 221935Z AUTO 05005KT 10SM BKN010 OVC014 18/18 A3001 RMK AO2 T01900181
KPSN 221915Z AUTO 03007KT 10SM BKN007 OVC070 18/18 A3002 RMK AO2 T01880182
KPSN 221855Z AUTO 04006KT 10SM DZ SCT006 BKN009 OVC015 18/18 A3002 RMK AO2 P0004 T01860182
KPSN 221835Z AUTO 07007KT 7SM RA BKN010 OVC016 18/18 A3002 RMK AO2 P0001 T01870181
KPSN 221815Z AUTO 04008KT 10SM RA BKN009 OVC013 18/17 A3004 RMK AO2 T01880180
KPSN 221755Z AUTO 06007KT 10SM -DZ SCT009 OVC013 18/18 A3004 RMK AO2 P0001 T01890182
KPSN 221735Z AUTO 05004KT 10SM -RA OVC009 18/18 A3005 RMK AO2 T01880181
KPSN 221715Z AUTO 06004KT 10SM -RA OVC009 18/18 A3005 RMK AO2 T01870182
KPSN 221655Z AUTO 05006KT 10SM -RA OVC007 18/17 A3005 RMK AO2 P0001 T01850180
KPSN 221635Z AUTO 04004KT 10SM -RA OVC007 18/17 A3005 RMK AO2 T01820176
KPSN 221615Z AUTO 04009KT 10SM OVC007 18/17 A3005 RMK AO2 T01820177
KPSN 221555Z AUTO 06006KT 10SM -DZ OVC007 17/17 A3006 RMK AO2 T01800175
KPSN 221535Z AUTO 04005KT 10SM -RA OVC007 17/17 A3006 RMK AO2 T01790174
KPSN 221515Z AUTO 04007KT 10SM -DZ OVC007 17/17 A3006 RMK AO2 T01790174
KPSN 221455Z AUTO 06005KT 10SM -RA BKN007 OVC070 17/17 A3005 RMK AO2 T01800175
KPSN 221435Z AUTO 07005KT 10SM BKN007 OVC070 17/17 A3005 RMK AO2 T01750171
KPSN 221415Z AUTO 09007KT 10SM SCT007 OVC070 17/17 A3005 RMK AO2 T01730170
KPSN 221355Z AUTO 09008KT 10SM BKN080 BKN110 17/16 A3004 RMK AO2 P0001 T01710169
KPSN 221335Z AUTO 09011KT 10SM SCT006 BKN080 OVC110 17/16 A3004 RMK AO2 P0001 T01700167
KPSN 221315Z AUTO 08009G16KT 10SM RA SCT027 BKN046 OVC090 16/16 A3005 RMK AO2 T01670163
KPSN 221255Z AUTO 08010G18KT 10SM -RA SCT042 BKN075 OVC100 16/16 A3006 RMK AO2 P0010 T01660162
KPSN 221235Z AUTO 06010KT 7SM RA SCT036 BKN049 OVC075 16/16 A3006 RMK AO2 P0009 T01660162
KPSN 221215Z AUTO 05008G14KT 7SM RA SCT025 BKN038 OVC060 16/16 A3008 RMK AO2 P0004 T01660162
KPSN 221155Z AUTO 03009G15KT 10SM -RA BKN055 OVC075 16/16 A3008 RMK AO2 P0028 T01660162
KPSN 221135Z AUTO 02012G17KT 5SM RA SCT017 SCT025 OVC055 16/16 A3007 RMK AO2 P0024 T01660162
KPSN 221115Z AUTO 01009KT 4SM +RA SCT010 BKN021 OVC055 16/16 A3009 RMK AO2 P0014 T01670163
KPSN 221055Z AUTO 07005KT 5SM +RA SCT015 SCT022 OVC055 17/16 A3011 RMK AO2 P0007 T01700163
KPSN 221035Z AUTO 02007KT 10SM -DZ SCT042 OVC055 16/16 A3009 RMK AO2 P0002 T01680162
KPSN 221015Z AUTO 02007KT 10SM -RA OVC040 16/16 A3010 RMK AO2 P0001 T01680163
KPSN 220955Z AUTO 35008KT 7SM RA OVC040 17/16 A3009 RMK AO2 P0004 T01710165
KPSN 220935Z AUTO 30009KT 10SM -RA BKN040 OVC050 17/16 A3009 RMK AO2 T01750164
KPSN 220915Z AUTO 04006KT 10SM SCT050 OVC070 17/16 A3007 RMK AO2 T01750163
KPSN 220855Z AUTO 02004KT 10SM OVC070 17/16 A3008 RMK AO2 T01720166
KPSN 220835Z AUTO 02006KT 10SM BKN070 BKN090 OVC120 17/16 A3008 RMK AO2 T01710165
KPSN 220815Z AUTO 35006KT 10SM SCT070 SCT090 BKN120 17/16 A3008 RMK AO2 T01700162
KPSN 220755Z AUTO 03003KT 10SM SCT110 17/16 A3009 RMK AO2 T01710160
KPSN 220735Z AUTO 05004KT 10SM CLR 17/15 A3009 RMK AO2 T01700157
KPSN 220715Z AUTO 07004KT 10SM SCT120 16/15 A3010 RMK AO2 T01660151
KPSN 220655Z AUTO 06006KT 10SM SCT120 17/15 A3009 RMK AO2 P0004 T01700150
KPSN 220635Z AUTO 05007KT 10SM SCT060 SCT070 BKN090 16/15 A3008 RMK AO2 P0004 T01650155
KPSN 220615Z AUTO 03006KT 7SM -RA SCT034 BKN065 OVC090 16/15 A3009 RMK AO2 P0004 T01610155
KPSN 220555Z AUTO 00000KT 7SM RA BKN065 BKN075 OVC120 16/15 A3012 RMK AO2 P0001 T01620155
KPSN 220535Z AUTO 05003KT 10SM -DZ SCT090 BKN120 16/15 A3014 RMK AO2 T01600150
KPSN 220515Z AUTO 35006KT 10SM SCT120 15/15 A3014 RMK AO2 T01570149
KPSN 220455Z AUTO 26007G15KT 240V300 10SM -RA SCT013 SCT025 SCT044 16/16 A3016 RMK AO2 P0012 T01650160
KPSN 220435Z AUTO 01014G21KT 5SM +RA SCT026 SCT037 OVC070 17/16 A3012 RMK AO2 P0008 T01700163
KPSN 220415Z AUTO 26012KT 7SM -RA SCT025 OVC060 17/16 A3019 RMK AO2 P0003 T01760165
KPSN 220355Z AUTO 00000KT 10SM OVC060 18/16 A3014 RMK AO2 T01850160
KPSN 220335Z AUTO 00000KT 10SM BKN060 OVC070 18/16 A3012 RMK AO2 T01810159
KPSN 220315Z AUTO 00000KT 10SM BKN050 BKN070 18/15 A3013 RMK AO2 T01830156
KPSN 220255Z AUTO 21008KT 10SM SCT050 18/15 A3014 RMK AO2 T01820153
KPSN 220235Z AUTO 05006KT 10SM CLR 17/15 A3006 RMK AO2 T01800149
KPSN 220215Z AUTO 09003KT 10SM CLR 18/15 A3008 RMK AO2 T01800148
KPSN 220155Z AUTO 08005KT 10SM CLR 17/15 A3009 RMK AO2 T01800151
KPSN 220135Z AUTO 03006KT 10SM CLR 17/15 A3007 RMK AO2 T01800156
KPSN 220115Z AUTO 02004KT 10SM CLR 17/16 A3006 RMK AO2 T01800160
KPSN 220055Z AUTO 36006KT 10SM CLR 17/16 A3006 RMK AO2 P0001 T01770160
KPSN 220035Z AUTO 03004KT 10SM SCT120 17/16 A3008 RMK AO2 P0001 T01800160
KPSN 220015Z AUTO 06003KT 10SM -RA SCT024 SCT038 BKN120 17/15 A3007 RMK AO2 P0001 T01760157
KPSN 212355Z AUTO 01007KT 10SM -RA SCT031 BKN039 OVC055 17/16 A3008 RMK AO2 P0005 T01760159
KPSN 212335Z AUTO 01005KT 7SM RA SCT030 BKN039 OVC100 18/16 A3008 RMK AO2 P0004 T01900169
KPSN 212315Z AUTO 01007KT 10SM -RA SCT032 BKN055 OVC100 20/16 A3009 RMK AO2 T02010163
KPSN 212255Z AUTO 05007KT 10SM OVC048 21/16 A3009 RMK AO2 T02100166
KPSN 212235Z AUTO 01007KT 10SM BKN050 OVC100 21/16 A3010 RMK AO2 T02120164
KPSN 212215Z AUTO 01007KT 10SM SCT050 SCT070 BKN100 21/16 A3010 RMK AO2 T02140158
KPSN 212155Z AUTO 04008KT 10SM BKN070 BKN100 22/16 A3008 RMK AO2 T02240169
KPSN 212135Z AUTO 02008KT 10SM BKN060 23/17 A3008 RMK AO2 T02330176
KPSN 212115Z AUTO 04007KT 10SM SCT060 23/17 A3008 RMK AO2 T02310177
KPSN 212055Z AUTO 36009KT 10SM SCT048 SCT060 SCT110 22/17 A3008 RMK AO2 T02270171
KPSN 212035Z AUTO 01008KT 10SM BKN046 OVC060 22/16 A3009 RMK AO2 T02210167
KPSN 212015Z AUTO 32007KT 290V350 10SM BKN046 BKN100 BKN120 22/17 A3010 RMK AO2 T02190170
KPSN 211955Z AUTO 35006KT 10SM SCT048 SCT065 BKN100 22/16 A3010 RMK AO2 T02190168
KPSN 211935Z AUTO 08004KT 10SM SCT049 OVC065 21/16 A3010 RMK AO2 T02120166
KPSN 211915Z AUTO 36007KT 10SM OVC049 20/16 A3011 RMK AO2 T02050160
KPSN 211855Z AUTO 36007KT 10SM BKN047 OVC070 20/15 A3012 RMK AO2 T02060152
KPSN 211835Z AUTO 07013KT 10SM BKN045 OVC070 21/15 A3011 RMK AO2 T02130149
KPSN 211815Z AUTO 08009KT 10SM OVC045 20/15 A3012 RMK AO2 T02000150
KPSN 211755Z AUTO 36011G16KT 10SM BKN041 OVC048 19/15 A3017 RMK AO2 T01950149
KPSN 211735Z AUTO 04009KT 10SM OVC039 20/15 A3015 RMK AO2 T02020147
KPSN 211715Z AUTO 05008KT 10SM -RA OVC039 19/14 A3015 RMK AO2 T01960145


Page loaded:  05:04 UTC  |   10:04 PM Pacific  |   11:04 PM Mountain  |   12:04 AM Central  |   01:04 AM Eastern

 

ADVISORIES

FORECASTS

FORECASTS

OBSERVATIONS

USER TOOLS

ABOUT US